sensor_id;sensor_type;location;lat;lon;timestamp;P1;durP1;ratioP1;P2;durP2;ratioP2
20488;SDS011;10403;54.092;12.122;2023-12-20T00:00:36;6.47;;;1.90;;
20488;SDS011;10403;54.092;12.122;2023-12-20T00:03:07;6.43;;;1.90;;
20488;SDS011;10403;54.092;12.122;2023-12-20T00:05:34;4.20;;;1.80;;
20488;SDS011;10403;54.092;12.122;2023-12-20T00:08:02;4.27;;;1.77;;
20488;SDS011;10403;54.092;12.122;2023-12-20T00:10:31;9.13;;;2.23;;
20488;SDS011;10403;54.092;12.122;2023-12-20T00:12:59;8.13;;;2.13;;
20488;SDS011;10403;54.092;12.122;2023-12-20T00:15:26;6.73;;;1.90;;
20488;SDS011;10403;54.092;12.122;2023-12-20T00:17:53;10.60;;;2.40;;
20488;SDS011;10403;54.092;12.122;2023-12-20T00:20:20;15.30;;;2.60;;
20488;SDS011;10403;54.092;12.122;2023-12-20T00:22:47;10.87;;;2.50;;
20488;SDS011;10403;54.092;12.122;2023-12-20T00:25:14;6.50;;;2.07;;
20488;SDS011;10403;54.092;12.122;2023-12-20T00:27:42;6.20;;;2.00;;
20488;SDS011;10403;54.092;12.122;2023-12-20T00:30:10;11.30;;;1.77;;
20488;SDS011;10403;54.092;12.122;2023-12-20T00:32:38;8.43;;;2.20;;
20488;SDS011;10403;54.092;12.122;2023-12-20T00:35:05;13.07;;;1.93;;
20488;SDS011;10403;54.092;12.122;2023-12-20T00:37:33;7.20;;;2.10;;
20488;SDS011;10403;54.092;12.122;2023-12-20T00:40:00;9.23;;;1.80;;
20488;SDS011;10403;54.092;12.122;2023-12-20T00:42:27;6.63;;;1.80;;
20488;SDS011;10403;54.092;12.122;2023-12-20T00:44:54;8.37;;;1.80;;
20488;SDS011;10403;54.092;12.122;2023-12-20T00:47:22;5.00;;;1.57;;
20488;SDS011;10403;54.092;12.122;2023-12-20T00:49:49;8.60;;;2.20;;
20488;SDS011;10403;54.092;12.122;2023-12-20T00:52:16;10.53;;;1.90;;
20488;SDS011;10403;54.092;12.122;2023-12-20T00:54:45;4.37;;;1.57;;
20488;SDS011;10403;54.092;12.122;2023-12-20T00:57:12;7.23;;;2.13;;
20488;SDS011;10403;54.092;12.122;2023-12-20T00:59:39;6.60;;;1.80;;
20488;SDS011;10403;54.092;12.122;2023-12-20T01:02:06;6.23;;;1.60;;
20488;SDS011;10403;54.092;12.122;2023-12-20T01:04:35;7.23;;;2.00;;
20488;SDS011;10403;54.092;12.122;2023-12-20T01:07:02;12.30;;;1.97;;
20488;SDS011;10403;54.092;12.122;2023-12-20T01:09:29;6.77;;;1.70;;
20488;SDS011;10403;54.092;12.122;2023-12-20T01:11:58;4.60;;;1.50;;
20488;SDS011;10403;54.092;12.122;2023-12-20T01:14:26;5.20;;;1.70;;
20488;SDS011;10403;54.092;12.122;2023-12-20T01:16:53;8.87;;;1.73;;
20488;SDS011;10403;54.092;12.122;2023-12-20T01:19:20;6.27;;;2.00;;
20488;SDS011;10403;54.092;12.122;2023-12-20T01:21:47;5.17;;;1.70;;
20488;SDS011;10403;54.092;12.122;2023-12-20T01:24:15;7.00;;;1.80;;
20488;SDS011;10403;54.092;12.122;2023-12-20T01:26:42;8.67;;;2.00;;
20488;SDS011;10403;54.092;12.122;2023-12-20T01:29:09;6.87;;;1.80;;
20488;SDS011;10403;54.092;12.122;2023-12-20T01:31:36;8.33;;;1.67;;
20488;SDS011;10403;54.092;12.122;2023-12-20T01:34:03;10.73;;;2.00;;
20488;SDS011;10403;54.092;12.122;2023-12-20T01:36:30;5.73;;;2.03;;
20488;SDS011;10403;54.092;12.122;2023-12-20T01:38:58;6.47;;;1.60;;
20488;SDS011;10403;54.092;12.122;2023-12-20T01:41:25;9.53;;;1.80;;
20488;SDS011;10403;54.092;12.122;2023-12-20T01:43:52;4.83;;;1.50;;
20488;SDS011;10403;54.092;12.122;2023-12-20T01:46:20;12.07;;;2.10;;
20488;SDS011;10403;54.092;12.122;2023-12-20T01:48:48;11.03;;;1.77;;
20488;SDS011;10403;54.092;12.122;2023-12-20T01:51:15;6.03;;;1.67;;
20488;SDS011;10403;54.092;12.122;2023-12-20T01:53:43;11.67;;;2.67;;
20488;SDS011;10403;54.092;12.122;2023-12-20T01:56:11;8.30;;;2.40;;
20488;SDS011;10403;54.092;12.122;2023-12-20T01:58:39;7.30;;;1.80;;
20488;SDS011;10403;54.092;12.122;2023-12-20T02:01:12;10.27;;;2.00;;
20488;SDS011;10403;54.092;12.122;2023-12-20T02:03:40;14.23;;;2.30;;
20488;SDS011;10403;54.092;12.122;2023-12-20T02:06:09;11.73;;;1.80;;
20488;SDS011;10403;54.092;12.122;2023-12-20T02:08:36;14.40;;;2.53;;
20488;SDS011;10403;54.092;12.122;2023-12-20T02:11:03;19.57;;;2.30;;
20488;SDS011;10403;54.092;12.122;2023-12-20T02:13:31;8.97;;;2.53;;
20488;SDS011;10403;54.092;12.122;2023-12-20T02:15:58;11.97;;;2.43;;
20488;SDS011;10403;54.092;12.122;2023-12-20T02:18:26;11.30;;;2.40;;
20488;SDS011;10403;54.092;12.122;2023-12-20T02:20:54;13.63;;;2.23;;
20488;SDS011;10403;54.092;12.122;2023-12-20T02:23:22;14.40;;;2.73;;
20488;SDS011;10403;54.092;12.122;2023-12-20T02:25:49;15.47;;;2.97;;
20488;SDS011;10403;54.092;12.122;2023-12-20T02:28:16;16.90;;;2.43;;
20488;SDS011;10403;54.092;12.122;2023-12-20T02:30:43;14.93;;;2.80;;
20488;SDS011;10403;54.092;12.122;2023-12-20T02:33:10;17.67;;;2.80;;
20488;SDS011;10403;54.092;12.122;2023-12-20T02:35:40;13.30;;;3.33;;
20488;SDS011;10403;54.092;12.122;2023-12-20T02:38:08;17.00;;;3.17;;
20488;SDS011;10403;54.092;12.122;2023-12-20T02:40:35;11.70;;;2.60;;
20488;SDS011;10403;54.092;12.122;2023-12-20T02:43:02;11.97;;;2.70;;
20488;SDS011;10403;54.092;12.122;2023-12-20T02:45:29;14.67;;;3.10;;
20488;SDS011;10403;54.092;12.122;2023-12-20T02:47:56;18.63;;;3.67;;
20488;SDS011;10403;54.092;12.122;2023-12-20T02:50:24;15.17;;;3.80;;
20488;SDS011;10403;54.092;12.122;2023-12-20T02:52:51;12.93;;;3.17;;
20488;SDS011;10403;54.092;12.122;2023-12-20T02:55:18;14.40;;;3.67;;
20488;SDS011;10403;54.092;12.122;2023-12-20T02:57:45;11.93;;;3.20;;
20488;SDS011;10403;54.092;12.122;2023-12-20T03:00:13;16.23;;;3.10;;
20488;SDS011;10403;54.092;12.122;2023-12-20T03:02:40;17.33;;;2.57;;
20488;SDS011;10403;54.092;12.122;2023-12-20T03:05:08;13.10;;;3.40;;
20488;SDS011;10403;54.092;12.122;2023-12-20T03:07:36;16.07;;;2.83;;
20488;SDS011;10403;54.092;12.122;2023-12-20T03:10:04;13.07;;;2.67;;
20488;SDS011;10403;54.092;12.122;2023-12-20T03:12:45;14.23;;;3.07;;
20488;SDS011;10403;54.092;12.122;2023-12-20T03:15:13;14.27;;;3.00;;
20488;SDS011;10403;54.092;12.122;2023-12-20T03:17:41;19.17;;;3.43;;
20488;SDS011;10403;54.092;12.122;2023-12-20T03:20:09;14.00;;;2.73;;
20488;SDS011;10403;54.092;12.122;2023-12-20T03:22:36;12.60;;;2.77;;
20488;SDS011;10403;54.092;12.122;2023-12-20T03:25:03;18.37;;;3.57;;
20488;SDS011;10403;54.092;12.122;2023-12-20T03:27:30;16.27;;;3.43;;
20488;SDS011;10403;54.092;12.122;2023-12-20T03:29:58;19.40;;;3.27;;
20488;SDS011;10403;54.092;12.122;2023-12-20T03:32:25;15.20;;;3.00;;
20488;SDS011;10403;54.092;12.122;2023-12-20T03:34:52;10.50;;;2.97;;
20488;SDS011;10403;54.092;12.122;2023-12-20T03:37:19;13.07;;;2.90;;
20488;SDS011;10403;54.092;12.122;2023-12-20T03:39:48;15.40;;;2.90;;
20488;SDS011;10403;54.092;12.122;2023-12-20T03:42:15;17.03;;;3.20;;
20488;SDS011;10403;54.092;12.122;2023-12-20T03:44:42;13.93;;;3.03;;
20488;SDS011;10403;54.092;12.122;2023-12-20T03:47:09;16.30;;;3.10;;
20488;SDS011;10403;54.092;12.122;2023-12-20T03:49:36;12.60;;;2.23;;
20488;SDS011;10403;54.092;12.122;2023-12-20T03:52:05;12.97;;;3.17;;
20488;SDS011;10403;54.092;12.122;2023-12-20T03:54:32;12.60;;;2.57;;
20488;SDS011;10403;54.092;12.122;2023-12-20T03:57:01;15.80;;;3.07;;
20488;SDS011;10403;54.092;12.122;2023-12-20T03:59:28;22.27;;;4.30;;
20488;SDS011;10403;54.092;12.122;2023-12-20T04:01:56;24.17;;;3.10;;
20488;SDS011;10403;54.092;12.122;2023-12-20T04:04:23;11.70;;;2.67;;
20488;SDS011;10403;54.092;12.122;2023-12-20T04:06:50;12.63;;;2.87;;
20488;SDS011;10403;54.092;12.122;2023-12-20T04:09:18;11.30;;;2.30;;
20488;SDS011;10403;54.092;12.122;2023-12-20T04:11:45;17.37;;;2.93;;
20488;SDS011;10403;54.092;12.122;2023-12-20T04:14:12;17.67;;;3.20;;
20488;SDS011;10403;54.092;12.122;2023-12-20T04:16:39;15.20;;;3.07;;
20488;SDS011;10403;54.092;12.122;2023-12-20T04:19:09;14.03;;;3.13;;
20488;SDS011;10403;54.092;12.122;2023-12-20T04:21:37;12.37;;;3.10;;
20488;SDS011;10403;54.092;12.122;2023-12-20T04:24:04;17.47;;;3.00;;
20488;SDS011;10403;54.092;12.122;2023-12-20T04:26:31;13.33;;;3.10;;
20488;SDS011;10403;54.092;12.122;2023-12-20T04:28:58;16.17;;;3.10;;
20488;SDS011;10403;54.092;12.122;2023-12-20T04:31:25;15.97;;;3.87;;
20488;SDS011;10403;54.092;12.122;2023-12-20T04:33:53;19.60;;;3.13;;
20488;SDS011;10403;54.092;12.122;2023-12-20T04:36:20;13.37;;;4.03;;
20488;SDS011;10403;54.092;12.122;2023-12-20T04:38:47;21.30;;;3.47;;
20488;SDS011;10403;54.092;12.122;2023-12-20T04:41:15;16.10;;;3.53;;
20488;SDS011;10403;54.092;12.122;2023-12-20T04:43:42;12.13;;;3.37;;
20488;SDS011;10403;54.092;12.122;2023-12-20T04:46:09;18.93;;;3.50;;
20488;SDS011;10403;54.092;12.122;2023-12-20T04:48:37;10.87;;;2.90;;
20488;SDS011;10403;54.092;12.122;2023-12-20T04:51:04;15.03;;;3.73;;
20488;SDS011;10403;54.092;12.122;2023-12-20T04:53:32;19.50;;;4.57;;
20488;SDS011;10403;54.092;12.122;2023-12-20T04:55:59;14.27;;;3.53;;
20488;SDS011;10403;54.092;12.122;2023-12-20T04:58:26;14.60;;;3.30;;
20488;SDS011;10403;54.092;12.122;2023-12-20T05:00:53;16.67;;;3.67;;
20488;SDS011;10403;54.092;12.122;2023-12-20T05:03:21;19.60;;;4.07;;
20488;SDS011;10403;54.092;12.122;2023-12-20T05:05:48;13.87;;;3.40;;
20488;SDS011;10403;54.092;12.122;2023-12-20T05:08:15;13.87;;;3.27;;
20488;SDS011;10403;54.092;12.122;2023-12-20T05:10:42;15.47;;;4.03;;
20488;SDS011;10403;54.092;12.122;2023-12-20T05:13:09;19.13;;;3.23;;
20488;SDS011;10403;54.092;12.122;2023-12-20T05:15:37;10.27;;;3.10;;
20488;SDS011;10403;54.092;12.122;2023-12-20T05:18:04;17.13;;;4.53;;
20488;SDS011;10403;54.092;12.122;2023-12-20T05:20:32;18.87;;;3.93;;
20488;SDS011;10403;54.092;12.122;2023-12-20T05:22:59;13.20;;;3.30;;
20488;SDS011;10403;54.092;12.122;2023-12-20T05:25:26;20.70;;;4.03;;
20488;SDS011;10403;54.092;12.122;2023-12-20T05:27:54;21.80;;;4.07;;
20488;SDS011;10403;54.092;12.122;2023-12-20T05:30:21;14.53;;;3.93;;
20488;SDS011;10403;54.092;12.122;2023-12-20T05:32:48;11.93;;;3.53;;
20488;SDS011;10403;54.092;12.122;2023-12-20T05:35:16;12.03;;;3.23;;
20488;SDS011;10403;54.092;12.122;2023-12-20T05:37:43;12.67;;;2.93;;
20488;SDS011;10403;54.092;12.122;2023-12-20T05:40:11;19.37;;;3.77;;
20488;SDS011;10403;54.092;12.122;2023-12-20T05:42:38;13.30;;;3.00;;
20488;SDS011;10403;54.092;12.122;2023-12-20T05:45:06;14.47;;;3.30;;
20488;SDS011;10403;54.092;12.122;2023-12-20T05:47:33;7.50;;;3.20;;
20488;SDS011;10403;54.092;12.122;2023-12-20T05:50:00;16.33;;;3.47;;
20488;SDS011;10403;54.092;12.122;2023-12-20T05:52:27;17.93;;;3.10;;
20488;SDS011;10403;54.092;12.122;2023-12-20T05:54:55;12.80;;;3.27;;
20488;SDS011;10403;54.092;12.122;2023-12-20T05:57:24;14.57;;;3.20;;
20488;SDS011;10403;54.092;12.122;2023-12-20T05:59:51;15.07;;;3.80;;
20488;SDS011;10403;54.092;12.122;2023-12-20T06:02:18;18.10;;;4.30;;
20488;SDS011;10403;54.092;12.122;2023-12-20T06:04:45;14.20;;;2.73;;
20488;SDS011;10403;54.092;12.122;2023-12-20T06:07:13;20.27;;;3.63;;
20488;SDS011;10403;54.092;12.122;2023-12-20T06:09:41;12.73;;;3.80;;
20488;SDS011;10403;54.092;12.122;2023-12-20T06:12:09;16.73;;;3.50;;
20488;SDS011;10403;54.092;12.122;2023-12-20T06:14:36;12.93;;;3.40;;
20488;SDS011;10403;54.092;12.122;2023-12-20T06:17:03;11.83;;;3.03;;
20488;SDS011;10403;54.092;12.122;2023-12-20T06:19:31;15.17;;;2.97;;
20488;SDS011;10403;54.092;12.122;2023-12-20T06:21:58;13.30;;;2.90;;
20488;SDS011;10403;54.092;12.122;2023-12-20T06:24:25;10.73;;;2.20;;
20488;SDS011;10403;54.092;12.122;2023-12-20T06:26:54;9.27;;;2.33;;
20488;SDS011;10403;54.092;12.122;2023-12-20T06:29:22;6.73;;;2.67;;
20488;SDS011;10403;54.092;12.122;2023-12-20T06:31:49;9.20;;;2.50;;
20488;SDS011;10403;54.092;12.122;2023-12-20T06:34:16;18.43;;;3.20;;
20488;SDS011;10403;54.092;12.122;2023-12-20T06:36:44;13.30;;;2.90;;
20488;SDS011;10403;54.092;12.122;2023-12-20T06:39:11;13.57;;;3.37;;
20488;SDS011;10403;54.092;12.122;2023-12-20T06:41:39;10.70;;;3.03;;
20488;SDS011;10403;54.092;12.122;2023-12-20T06:44:06;10.73;;;2.93;;
20488;SDS011;10403;54.092;12.122;2023-12-20T06:46:34;14.27;;;3.10;;
20488;SDS011;10403;54.092;12.122;2023-12-20T06:49:01;15.70;;;3.37;;
20488;SDS011;10403;54.092;12.122;2023-12-20T06:51:28;12.50;;;3.20;;
20488;SDS011;10403;54.092;12.122;2023-12-20T06:53:57;9.53;;;2.60;;
20488;SDS011;10403;54.092;12.122;2023-12-20T06:56:24;13.87;;;3.03;;
20488;SDS011;10403;54.092;12.122;2023-12-20T06:58:51;7.40;;;2.10;;
20488;SDS011;10403;54.092;12.122;2023-12-20T07:01:18;8.03;;;2.20;;
20488;SDS011;10403;54.092;12.122;2023-12-20T07:03:46;5.63;;;2.30;;
20488;SDS011;10403;54.092;12.122;2023-12-20T07:06:13;8.00;;;2.50;;
20488;SDS011;10403;54.092;12.122;2023-12-20T07:08:43;6.30;;;2.03;;
20488;SDS011;10403;54.092;12.122;2023-12-20T07:11:10;5.37;;;2.13;;
20488;SDS011;10403;54.092;12.122;2023-12-20T07:13:37;14.07;;;3.37;;
20488;SDS011;10403;54.092;12.122;2023-12-20T07:16:05;8.27;;;2.67;;
20488;SDS011;10403;54.092;12.122;2023-12-20T07:18:32;10.00;;;2.40;;
20488;SDS011;10403;54.092;12.122;2023-12-20T07:21:00;8.37;;;2.47;;
20488;SDS011;10403;54.092;12.122;2023-12-20T07:23:27;11.40;;;2.77;;
20488;SDS011;10403;54.092;12.122;2023-12-20T07:25:54;13.97;;;3.17;;
20488;SDS011;10403;54.092;12.122;2023-12-20T07:28:21;9.97;;;2.77;;
20488;SDS011;10403;54.092;12.122;2023-12-20T07:30:48;11.43;;;3.00;;
20488;SDS011;10403;54.092;12.122;2023-12-20T07:33:16;12.50;;;2.80;;
20488;SDS011;10403;54.092;12.122;2023-12-20T07:35:43;8.97;;;2.67;;
20488;SDS011;10403;54.092;12.122;2023-12-20T07:38:12;7.10;;;2.30;;
20488;SDS011;10403;54.092;12.122;2023-12-20T07:40:39;11.97;;;2.53;;
20488;SDS011;10403;54.092;12.122;2023-12-20T07:43:06;17.37;;;4.30;;
20488;SDS011;10403;54.092;12.122;2023-12-20T07:45:33;11.57;;;2.53;;
20488;SDS011;10403;54.092;12.122;2023-12-20T07:48:00;9.83;;;2.60;;
20488;SDS011;10403;54.092;12.122;2023-12-20T07:50:28;14.83;;;3.27;;
20488;SDS011;10403;54.092;12.122;2023-12-20T07:52:55;9.83;;;3.10;;
20488;SDS011;10403;54.092;12.122;2023-12-20T07:55:22;10.73;;;3.03;;
20488;SDS011;10403;54.092;12.122;2023-12-20T07:57:50;9.80;;;2.63;;
20488;SDS011;10403;54.092;12.122;2023-12-20T08:00:17;14.83;;;2.80;;
20488;SDS011;10403;54.092;12.122;2023-12-20T08:02:45;14.23;;;2.70;;
20488;SDS011;10403;54.092;12.122;2023-12-20T08:05:12;11.93;;;3.13;;
20488;SDS011;10403;54.092;12.122;2023-12-20T08:07:42;14.17;;;2.53;;
20488;SDS011;10403;54.092;12.122;2023-12-20T08:10:09;7.17;;;2.87;;
20488;SDS011;10403;54.092;12.122;2023-12-20T08:12:37;6.23;;;2.00;;
20488;SDS011;10403;54.092;12.122;2023-12-20T08:15:06;8.63;;;2.40;;
20488;SDS011;10403;54.092;12.122;2023-12-20T08:17:33;8.60;;;2.20;;
20488;SDS011;10403;54.092;12.122;2023-12-20T08:20:01;10.40;;;2.10;;
20488;SDS011;10403;54.092;12.122;2023-12-20T08:22:28;7.07;;;2.43;;
20488;SDS011;10403;54.092;12.122;2023-12-20T08:24:56;8.10;;;2.17;;
20488;SDS011;10403;54.092;12.122;2023-12-20T08:27:23;7.00;;;1.97;;
20488;SDS011;10403;54.092;12.122;2023-12-20T08:29:52;8.67;;;3.07;;
20488;SDS011;10403;54.092;12.122;2023-12-20T08:32:19;12.83;;;2.77;;
20488;SDS011;10403;54.092;12.122;2023-12-20T08:34:47;13.60;;;2.57;;
20488;SDS011;10403;54.092;12.122;2023-12-20T08:37:15;15.40;;;3.13;;
20488;SDS011;10403;54.092;12.122;2023-12-20T08:39:42;9.23;;;2.70;;
20488;SDS011;10403;54.092;12.122;2023-12-20T08:42:11;8.53;;;2.37;;
20488;SDS011;10403;54.092;12.122;2023-12-20T08:44:39;12.93;;;2.53;;
20488;SDS011;10403;54.092;12.122;2023-12-20T08:47:07;12.70;;;2.40;;
20488;SDS011;10403;54.092;12.122;2023-12-20T08:49:34;12.13;;;2.80;;
20488;SDS011;10403;54.092;12.122;2023-12-20T08:52:02;12.97;;;2.83;;
20488;SDS011;10403;54.092;12.122;2023-12-20T08:54:30;12.67;;;2.80;;
20488;SDS011;10403;54.092;12.122;2023-12-20T08:56:58;7.63;;;2.60;;
20488;SDS011;10403;54.092;12.122;2023-12-20T08:59:25;7.40;;;2.07;;
20488;SDS011;10403;54.092;12.122;2023-12-20T09:01:52;7.47;;;1.93;;
20488;SDS011;10403;54.092;12.122;2023-12-20T09:04:21;6.47;;;2.33;;
20488;SDS011;10403;54.092;12.122;2023-12-20T09:06:49;9.43;;;2.43;;
20488;SDS011;10403;54.092;12.122;2023-12-20T09:09:16;6.10;;;1.93;;
20488;SDS011;10403;54.092;12.122;2023-12-20T09:11:44;7.47;;;1.90;;
20488;SDS011;10403;54.092;12.122;2023-12-20T09:14:14;5.53;;;1.73;;
20488;SDS011;10403;54.092;12.122;2023-12-20T09:16:42;6.70;;;2.30;;
20488;SDS011;10403;54.092;12.122;2023-12-20T09:19:09;8.30;;;2.40;;
20488;SDS011;10403;54.092;12.122;2023-12-20T09:21:37;7.03;;;2.77;;
20488;SDS011;10403;54.092;12.122;2023-12-20T09:24:04;8.40;;;2.07;;
20488;SDS011;10403;54.092;12.122;2023-12-20T09:26:32;6.57;;;2.20;;
20488;SDS011;10403;54.092;12.122;2023-12-20T09:28:59;7.80;;;2.50;;
20488;SDS011;10403;54.092;12.122;2023-12-20T09:31:26;13.43;;;2.93;;
20488;SDS011;10403;54.092;12.122;2023-12-20T09:33:53;13.33;;;2.97;;
20488;SDS011;10403;54.092;12.122;2023-12-20T09:36:21;8.33;;;2.27;;
20488;SDS011;10403;54.092;12.122;2023-12-20T09:38:48;11.70;;;2.40;;
20488;SDS011;10403;54.092;12.122;2023-12-20T09:41:15;12.33;;;2.30;;
20488;SDS011;10403;54.092;12.122;2023-12-20T09:43:43;12.83;;;3.27;;
20488;SDS011;10403;54.092;12.122;2023-12-20T09:46:10;13.87;;;2.57;;
20488;SDS011;10403;54.092;12.122;2023-12-20T09:48:43;9.67;;;2.33;;
20488;SDS011;10403;54.092;12.122;2023-12-20T09:51:11;6.53;;;1.93;;
20488;SDS011;10403;54.092;12.122;2023-12-20T09:53:39;8.27;;;2.80;;
20488;SDS011;10403;54.092;12.122;2023-12-20T09:56:08;11.50;;;2.60;;
20488;SDS011;10403;54.092;12.122;2023-12-20T09:58:36;5.70;;;1.77;;
20488;SDS011;10403;54.092;12.122;2023-12-20T10:01:06;11.63;;;2.67;;
20488;SDS011;10403;54.092;12.122;2023-12-20T10:03:34;13.80;;;2.50;;
20488;SDS011;10403;54.092;12.122;2023-12-20T10:06:03;7.43;;;2.10;;
20488;SDS011;10403;54.092;12.122;2023-12-20T10:08:31;5.07;;;2.97;;
20488;SDS011;10403;54.092;12.122;2023-12-20T10:10:58;8.83;;;2.50;;
20488;SDS011;10403;54.092;12.122;2023-12-20T10:13:29;8.83;;;2.37;;
20488;SDS011;10403;54.092;12.122;2023-12-20T10:15:56;10.37;;;2.93;;
20488;SDS011;10403;54.092;12.122;2023-12-20T10:18:24;10.83;;;3.33;;
20488;SDS011;10403;54.092;12.122;2023-12-20T10:21:05;12.40;;;2.70;;
20488;SDS011;10403;54.092;12.122;2023-12-20T10:23:34;10.47;;;3.23;;
20488;SDS011;10403;54.092;12.122;2023-12-20T10:26:01;9.50;;;2.60;;
20488;SDS011;10403;54.092;12.122;2023-12-20T10:28:32;8.10;;;2.73;;
20488;SDS011;10403;54.092;12.122;2023-12-20T10:31:02;8.27;;;2.50;;
20488;SDS011;10403;54.092;12.122;2023-12-20T10:33:30;11.90;;;2.77;;
20488;SDS011;10403;54.092;12.122;2023-12-20T10:36:01;14.50;;;3.17;;
20488;SDS011;10403;54.092;12.122;2023-12-20T10:38:30;11.13;;;2.80;;
20488;SDS011;10403;54.092;12.122;2023-12-20T10:40:57;9.20;;;2.50;;
20488;SDS011;10403;54.092;12.122;2023-12-20T10:43:26;7.00;;;2.00;;
20488;SDS011;10403;54.092;12.122;2023-12-20T10:45:56;9.83;;;2.80;;
20488;SDS011;10403;54.092;12.122;2023-12-20T10:48:23;7.57;;;2.07;;
20488;SDS011;10403;54.092;12.122;2023-12-20T10:50:56;6.17;;;2.17;;
20488;SDS011;10403;54.092;12.122;2023-12-20T10:53:25;4.10;;;1.60;;
20488;SDS011;10403;54.092;12.122;2023-12-20T10:55:55;3.07;;;1.43;;
20488;SDS011;10403;54.092;12.122;2023-12-20T10:58:28;3.97;;;1.50;;
20488;SDS011;10403;54.092;12.122;2023-12-20T11:01:01;11.13;;;1.90;;
20488;SDS011;10403;54.092;12.122;2023-12-20T11:03:32;3.50;;;1.77;;
20488;SDS011;10403;54.092;12.122;2023-12-20T11:06:08;7.57;;;1.60;;
20488;SDS011;10403;54.092;12.122;2023-12-20T11:14:58;6.30;;;1.57;;
20488;SDS011;10403;54.092;12.122;2023-12-20T11:17:31;5.87;;;1.80;;
20488;SDS011;10403;54.092;12.122;2023-12-20T11:20:05;12.00;;;1.83;;
20488;SDS011;10403;54.092;12.122;2023-12-20T11:22:35;3.13;;;1.67;;
20488;SDS011;10403;54.092;12.122;2023-12-20T11:25:10;5.43;;;1.57;;
20488;SDS011;10403;54.092;12.122;2023-12-20T11:27:41;6.33;;;1.53;;
20488;SDS011;10403;54.092;12.122;2023-12-20T11:30:11;3.20;;;1.37;;
20488;SDS011;10403;54.092;12.122;2023-12-20T11:32:40;5.87;;;1.83;;
20488;SDS011;10403;54.092;12.122;2023-12-20T11:37:37;5.37;;;1.60;;
20488;SDS011;10403;54.092;12.122;2023-12-20T11:40:12;4.03;;;1.50;;
20488;SDS011;10403;54.092;12.122;2023-12-20T11:42:45;3.30;;;1.23;;
20488;SDS011;10403;54.092;12.122;2023-12-20T11:45:18;4.23;;;1.63;;
20488;SDS011;10403;54.092;12.122;2023-12-20T11:47:49;4.23;;;1.60;;
20488;SDS011;10403;54.092;12.122;2023-12-20T11:50:18;6.13;;;1.50;;
20488;SDS011;10403;54.092;12.122;2023-12-20T11:52:47;4.30;;;1.67;;
20488;SDS011;10403;54.092;12.122;2023-12-20T11:55:15;3.83;;;1.77;;
20488;SDS011;10403;54.092;12.122;2023-12-20T11:57:43;5.63;;;1.70;;
20488;SDS011;10403;54.092;12.122;2023-12-20T12:00:12;9.23;;;1.93;;
20488;SDS011;10403;54.092;12.122;2023-12-20T12:02:40;3.17;;;1.50;;
20488;SDS011;10403;54.092;12.122;2023-12-20T12:05:08;6.23;;;2.00;;
20488;SDS011;10403;54.092;12.122;2023-12-20T12:07:36;6.23;;;1.67;;
20488;SDS011;10403;54.092;12.122;2023-12-20T12:10:04;6.87;;;1.40;;
20488;SDS011;10403;54.092;12.122;2023-12-20T12:12:32;7.33;;;1.50;;
20488;SDS011;10403;54.092;12.122;2023-12-20T12:15:00;5.63;;;1.57;;
20488;SDS011;10403;54.092;12.122;2023-12-20T12:17:27;12.27;;;1.97;;
20488;SDS011;10403;54.092;12.122;2023-12-20T12:20:02;9.73;;;2.30;;
20488;SDS011;10403;54.092;12.122;2023-12-20T12:22:32;10.10;;;1.67;;
20488;SDS011;10403;54.092;12.122;2023-12-20T12:25:08;6.67;;;1.97;;
20488;SDS011;10403;54.092;12.122;2023-12-20T12:27:41;8.50;;;1.60;;
20488;SDS011;10403;54.092;12.122;2023-12-20T12:30:09;8.00;;;2.10;;
20488;SDS011;10403;54.092;12.122;2023-12-20T12:32:40;6.43;;;2.13;;
20488;SDS011;10403;54.092;12.122;2023-12-20T12:35:08;8.53;;;2.17;;
20488;SDS011;10403;54.092;12.122;2023-12-20T12:37:39;5.53;;;1.70;;
20488;SDS011;10403;54.092;12.122;2023-12-20T12:40:11;5.60;;;1.60;;
20488;SDS011;10403;54.092;12.122;2023-12-20T12:42:41;6.53;;;1.97;;
20488;SDS011;10403;54.092;12.122;2023-12-20T12:45:11;10.47;;;2.07;;
20488;SDS011;10403;54.092;12.122;2023-12-20T12:47:38;6.57;;;2.40;;
20488;SDS011;10403;54.092;12.122;2023-12-20T12:50:07;12.40;;;2.43;;
20488;SDS011;10403;54.092;12.122;2023-12-20T12:52:35;7.47;;;2.30;;
20488;SDS011;10403;54.092;12.122;2023-12-20T12:55:03;16.63;;;2.27;;
20488;SDS011;10403;54.092;12.122;2023-12-20T12:57:32;9.20;;;2.30;;
20488;SDS011;10403;54.092;12.122;2023-12-20T13:00:00;6.50;;;1.93;;
20488;SDS011;10403;54.092;12.122;2023-12-20T13:02:29;7.93;;;2.33;;
20488;SDS011;10403;54.092;12.122;2023-12-20T13:04:59;10.77;;;3.27;;
20488;SDS011;10403;54.092;12.122;2023-12-20T13:07:29;6.97;;;2.10;;
20488;SDS011;10403;54.092;12.122;2023-12-20T13:09:56;11.53;;;2.10;;
20488;SDS011;10403;54.092;12.122;2023-12-20T13:12:23;14.80;;;2.33;;
20488;SDS011;10403;54.092;12.122;2023-12-20T13:14:51;8.80;;;2.00;;
20488;SDS011;10403;54.092;12.122;2023-12-20T13:17:18;7.47;;;2.20;;
20488;SDS011;10403;54.092;12.122;2023-12-20T13:19:46;10.67;;;2.20;;
20488;SDS011;10403;54.092;12.122;2023-12-20T13:22:13;9.30;;;2.10;;
20488;SDS011;10403;54.092;12.122;2023-12-20T13:24:41;12.60;;;2.23;;
20488;SDS011;10403;54.092;12.122;2023-12-20T13:27:10;6.00;;;1.70;;
20488;SDS011;10403;54.092;12.122;2023-12-20T13:29:38;10.93;;;2.10;;
20488;SDS011;10403;54.092;12.122;2023-12-20T13:32:06;11.03;;;2.70;;
20488;SDS011;10403;54.092;12.122;2023-12-20T13:34:34;13.30;;;2.03;;
20488;SDS011;10403;54.092;12.122;2023-12-20T13:37:01;14.27;;;2.37;;
20488;SDS011;10403;54.092;12.122;2023-12-20T13:39:29;9.30;;;2.70;;
20488;SDS011;10403;54.092;12.122;2023-12-20T13:41:58;15.53;;;2.40;;
20488;SDS011;10403;54.092;12.122;2023-12-20T13:44:27;11.30;;;2.47;;
20488;SDS011;10403;54.092;12.122;2023-12-20T13:46:54;11.00;;;2.57;;
20488;SDS011;10403;54.092;12.122;2023-12-20T13:49:21;9.30;;;2.80;;
20488;SDS011;10403;54.092;12.122;2023-12-20T13:51:53;10.33;;;2.67;;
20488;SDS011;10403;54.092;12.122;2023-12-20T13:54:22;12.43;;;2.60;;
20488;SDS011;10403;54.092;12.122;2023-12-20T13:56:49;13.37;;;2.80;;
20488;SDS011;10403;54.092;12.122;2023-12-20T13:59:34;9.33;;;2.60;;
20488;SDS011;10403;54.092;12.122;2023-12-20T14:02:02;9.40;;;2.17;;
20488;SDS011;10403;54.092;12.122;2023-12-20T14:04:30;10.27;;;2.90;;
20488;SDS011;10403;54.092;12.122;2023-12-20T14:07:09;8.97;;;3.20;;
20488;SDS011;10403;54.092;12.122;2023-12-20T14:09:39;8.87;;;2.37;;
20488;SDS011;10403;54.092;12.122;2023-12-20T14:12:13;11.67;;;2.80;;
20488;SDS011;10403;54.092;12.122;2023-12-20T14:14:41;17.30;;;2.70;;
20488;SDS011;10403;54.092;12.122;2023-12-20T14:17:10;10.17;;;2.80;;
20488;SDS011;10403;54.092;12.122;2023-12-20T14:19:37;15.23;;;3.00;;
20488;SDS011;10403;54.092;12.122;2023-12-20T14:22:06;14.50;;;2.87;;
20488;SDS011;10403;54.092;12.122;2023-12-20T14:24:34;12.20;;;2.80;;
20488;SDS011;10403;54.092;12.122;2023-12-20T14:27:03;13.30;;;2.87;;
20488;SDS011;10403;54.092;12.122;2023-12-20T14:29:31;15.13;;;2.93;;
20488;SDS011;10403;54.092;12.122;2023-12-20T14:31:58;11.40;;;3.37;;
20488;SDS011;10403;54.092;12.122;2023-12-20T14:34:27;11.83;;;3.53;;
20488;SDS011;10403;54.092;12.122;2023-12-20T14:36:55;18.33;;;3.07;;
20488;SDS011;10403;54.092;12.122;2023-12-20T14:39:22;13.37;;;3.17;;